Seiryu Maru — JM5893 — position and weather

sailwx.info

Track history (hours):
 
Tides and Currents Weather Stations Pressure Air Temp Water Temp Dewpoint Dewpoint Depression Visibility Wind Speed Wind Dir Waves Ship Positions

Seiryu Maru

Last reported at 2017-Dec-10 11:09 UTC. Time now 2017-Dec-11 02:01 UTC.
Position N 33°07' E 132°01'.

Length 69 m; draft 3.8 m.

Type: Cargo ship. MMSI: 431401059.

Date/timePositionNaut miles runAvg speedWind from/ knotsBaromVisibWave heightAir tempDewpointWater temp
2017-Dec-10 11:09N 33°07' E 132°01'258 9.9
2017-Dec-09 09:13N 34°39' E 136°52'312.1
2017-Dec-09 09:00N 34°41' E 136°49'612.4
2017-Dec-09 08:29N 34°47' E 136°46'612.4
2017-Dec-09 08:00N 34°52' E 136°43'611.9
2017-Dec-09 07:30N 34°57' E 136°39'1 1.4
2017-Dec-09 06:55N 34°57' E 136°38'0 0.0
2017-Dec-08 23:19N 34°57' E 136°38'0 0.0
2017-Dec-08 22:49N 34°57' E 136°38'1 3.9
2017-Dec-08 22:30N 34°57' E 136°40'3 4.9
2017-Dec-08 21:59N 34°54' E 136°41'0 0.0
2017-Dec-08 21:29N 34°54' E 136°41'0 0.0
2017-Dec-08 20:59N 34°54' E 136°41'0 0.0
2017-Dec-08 20:29N 34°54' E 136°41'0 0.0
2017-Dec-08 19:59N 34°54' E 136°41'0 0.0
2017-Dec-08 19:29N 34°54' E 136°41'0 0.1
2017-Dec-08 18:59N 34°54' E 136°41'0 0.1
2017-Dec-08 18:29N 34°54' E 136°41'0 0.1
2017-Dec-08 17:59N 34°54' E 136°41'0 0.0
2017-Dec-08 17:29N 34°54' E 136°41'0 0.1
2017-Dec-08 16:53N 34°54' E 136°41'0 0.1
2017-Dec-08 16:29N 34°54' E 136°41'0 0.1
2017-Dec-08 15:59N 34°54' E 136°41'0 0.0
2017-Dec-08 15:29N 34°54' E 136°41'0 0.0
2017-Dec-08 14:59N 34°54' E 136°41'0 0.0
2017-Dec-08 14:26N 34°54' E 136°41'0 0.0
2017-Dec-08 13:56N 34°54' E 136°41'1 3.2
2017-Dec-08 13:30N 34°53' E 136°42'510.1
2017-Dec-08 13:00N 34°49' E 136°45'510.1
2017-Dec-08 12:30N 34°45' E 136°48'5 9.6
2017-Dec-08 12:00N 34°41' E 136°52'  
2017-Dec-04 07:17N 34°01' E 132°46'310.9
2017-Dec-04 07:00N 33°58' E 132°44'510.1
2017-Dec-04 06:30N 33°55' E 132°39'510.5
2017-Dec-04 06:00N 33°53' E 132°34'610.8
2017-Dec-04 05:29N 33°51' E 132°27'510.4
2017-Dec-04 04:59N 33°50' E 132°21'710.9
2017-Dec-04 04:18N 33°50' E 132°12'711.3
2017-Dec-04 03:40N 33°46' E 132°05'211.7
2017-Dec-04 03:30N 33°45' E 132°03'811.9
2017-Dec-04 02:52N 33°45' E 131°53'512.3
2017-Dec-04 02:29N 33°46' E 131°48'612.7
2017-Dec-04 02:00N 33°48' E 131°41'612.8
2017-Dec-04 01:30N 33°49' E 131°33'612.4
2017-Dec-04 01:00N 33°50' E 131°26'611.8
2017-Dec-04 00:30N 33°51' E 131°19'611.8
2017-Dec-04 00:00N 33°53' E 131°12'611.2
2017-Dec-03 23:30N 33°56' E 131°06'510.6
2017-Dec-03 23:00N 33°58' E 131°01'4 8.2
2017-Dec-03 22:30N 33°57' E 130°56'1 1.2
2017-Dec-03 22:00N 33°57' E 130°56'0 0.1
2017-Dec-03 21:30N 33°57' E 130°56'0 0.1
2017-Dec-03 21:00N 33°57' E 130°56'0 0.0
2017-Dec-03 20:30N 33°57' E 130°56'0 0.1
2017-Dec-03 20:00N 33°57' E 130°56'0 0.1
2017-Dec-03 19:30N 33°57' E 130°56'0 0.1
2017-Dec-03 19:00N 33°57' E 130°56'0 0.1
2017-Dec-03 18:30N 33°57' E 130°56'0 0.0
2017-Dec-03 18:00N 33°57' E 130°56'0 0.0
2017-Dec-03 17:30N 33°57' E 130°56'0 0.1
2017-Dec-03 17:00N 33°57' E 130°56'0 0.1
2017-Dec-03 16:30N 33°57' E 130°56'0 0.1
2017-Dec-03 16:00N 33°57' E 130°56'0 0.1
2017-Dec-03 15:30N 33°57' E 130°56'0 0.1
2017-Dec-03 15:00N 33°57' E 130°56'0 0.1
2017-Dec-03 14:30N 33°57' E 130°56'0 0.1
2017-Dec-03 14:00N 33°57' E 130°56'0 0.1
2017-Dec-03 13:30N 33°57' E 130°56'0 0.0
2017-Dec-03 13:00N 33°57' E 130°56'0 0.0
2017-Dec-03 12:30N 33°57' E 130°56'0 0.0
2017-Dec-03 12:00N 33°57' E 130°56'0 0.0
2017-Dec-03 11:30N 33°57' E 130°56'0 0.0
2017-Dec-03 11:00N 33°57' E 130°56'0 0.1
2017-Dec-03 10:30N 33°57' E 130°56'0 0.1
2017-Dec-03 10:00N 33°57' E 130°56'0 0.1
2017-Dec-03 09:30N 33°57' E 130°56'0 0.0
2017-Dec-03 09:00N 33°57' E 130°56'0 0.1
2017-Dec-03 08:30N 33°57' E 130°56'0 0.1
2017-Dec-03 08:00N 33°57' E 130°56'0 0.1
2017-Dec-03 07:30N 33°57' E 130°56'0 0.0
2017-Dec-03 07:00N 33°57' E 130°56'0 0.0
2017-Dec-03 06:30N 33°57' E 130°56'0 0.0
2017-Dec-03 06:00N 33°57' E 130°56'0 0.0
2017-Dec-03 05:30N 33°57' E 130°56'0 0.0
2017-Dec-03 05:00N 33°57' E 130°56'0 0.0
2017-Dec-03 04:30N 33°57' E 130°56'0 0.0
2017-Dec-03 04:00N 33°57' E 130°56'0 0.0
2017-Dec-03 03:30N 33°57' E 130°56'0 0.0
2017-Dec-03 03:00N 33°57' E 130°56'0 0.1
2017-Dec-03 02:30N 33°57' E 130°56'0 0.0
2017-Dec-03 02:00N 33°57' E 130°56'0 0.1
2017-Dec-03 01:30N 33°57' E 130°56'0 0.1
2017-Dec-03 01:00N 33°57' E 130°56'0 0.1
2017-Dec-03 00:27N 33°57' E 130°56'0 0.1
2017-Dec-03 00:00N 33°57' E 130°56'0 0.1
2017-Dec-02 23:30N 33°57' E 130°56'0 0.0
2017-Dec-02 23:00N 33°57' E 130°56'0 0.0
2017-Dec-02 22:30N 33°57' E 130°56'0 0.1
2017-Dec-02 22:00N 33°57' E 130°56'0 0.0
2017-Dec-02 21:30N 33°57' E 130°56'0 0.1
2017-Dec-02 21:00N 33°57' E 130°56'0 0.1
2017-Dec-02 20:30N 33°57' E 130°56'0 0.1
2017-Dec-02 20:00N 33°57' E 130°56'0 0.0
2017-Dec-02 19:30N 33°57' E 130°56'0 0.0
2017-Dec-02 19:00N 33°57' E 130°56'0 0.0
2017-Dec-02 18:30N 33°57' E 130°56'0 0.1
2017-Dec-02 18:00N 33°57' E 130°56'0 0.1
2017-Dec-02 17:30N 33°57' E 130°56'0 0.0
2017-Dec-02 17:00N 33°57' E 130°56'0 0.0
2017-Dec-02 16:30N 33°57' E 130°56'0 0.0
2017-Dec-02 16:00N 33°57' E 130°56'0 0.1
2017-Dec-02 15:30N 33°57' E 130°56'0 0.0
2017-Dec-02 15:00N 33°57' E 130°56'0 0.0
2017-Dec-02 14:30N 33°57' E 130°56'0 0.0
2017-Dec-02 14:00N 33°57' E 130°56'0 0.1
2017-Dec-02 13:30N 33°57' E 130°56'0 0.0
2017-Dec-02 13:00N 33°57' E 130°56'0 0.0
2017-Dec-02 12:30N 33°57' E 130°56'0 0.0
2017-Dec-02 12:00N 33°57' E 130°56'0 0.0
2017-Dec-02 11:30N 33°57' E 130°56'0 0.0
2017-Dec-02 11:00N 33°57' E 130°56'0 0.1
2017-Dec-02 10:30N 33°57' E 130°56'0 0.0
2017-Dec-02 10:00N 33°57' E 130°56'0 0.0
2017-Dec-02 09:30N 33°57' E 130°56'0 0.1
2017-Dec-02 09:00N 33°57' E 130°56'0 0.0
2017-Dec-02 08:30N 33°57' E 130°56'0 0.0
2017-Dec-02 08:00N 33°57' E 130°56'0 0.0
2017-Dec-02 07:30N 33°57' E 130°56'0 0.0
2017-Dec-02 07:00N 33°57' E 130°56'0 0.1
2017-Dec-02 06:30N 33°57' E 130°56'0 0.1
2017-Dec-02 06:00N 33°57' E 130°56'0 0.1
2017-Dec-02 05:30N 33°57' E 130°56'1 2.1
2017-Dec-02 05:01N 33°56' E 130°56'4 8.8
2017-Dec-02 04:30N 33°57' E 130°51'612.1
2017-Dec-02 04:00N 33°58' E 130°44'612.8
2017-Dec-02 03:30N 33°57' E 130°36'612.0
2017-Dec-02 03:00N 33°55' E 130°29'612.5
2017-Dec-02 02:30N 33°51' E 130°24'612.1
2017-Dec-02 02:00N 33°46' E 130°19'612.2
2017-Dec-02 01:30N 33°43' E 130°13'612.3
2017-Dec-02 01:00N 33°39' E 130°07'812.2
2017-Dec-02 00:21N 33°36' E 129°58'4 0.1
2017-Nov-30 18:30N 33°37' E 130°03'5 9.6
2017-Nov-30 17:58N 33°39' E 130°09'510.3
2017-Nov-30 17:30N 33°43' E 130°13'5 9.6
2017-Nov-30 17:00N 33°46' E 130°17'5 9.6
2017-Nov-30 16:30N 33°49' E 130°22'510.1
2017-Nov-30 16:00N 33°52' E 130°26'510.9
2017-Nov-30 15:30N 33°56' E 130°31'5 9.8
2017-Nov-30 15:00N 33°57' E 130°37'5 9.7
2017-Nov-30 14:30N 33°58' E 130°42'5 9.9
2017-Nov-30 14:00N 33°58' E 130°48'5 9.2
2017-Nov-30 13:30N 33°56' E 130°53'3 6.0
2017-Nov-30 13:01N 33°57' E 130°57'5 9.1
2017-Nov-30 12:30N 33°58' E 131°02'5 9.8
2017-Nov-30 12:00N 33°54' E 131°04'4 8.9
2017-Nov-30 11:31N 33°49' E 131°03'  
Track history (hours):
 
Tides and Currents Weather Stations Pressure Air Temp Water Temp Dewpoint Dewpoint Depression Visibility Wind Speed Wind Dir Waves Ship Positions

Seiryu Maru

Last reported at 2017-Dec-10 11:09 UTC. Time now 2017-Dec-11 02:01 UTC.
Position N 33°07' E 132°01'.

Length 69 m; draft 3.8 m.

Type: Cargo ship. MMSI: 431401059.

Date/timePositionNaut miles runAvg speedWind from/ knotsBaromVisibWave heightAir tempDewpointWater temp
2017-Dec-10 11:09N 33°07' E 132°01'258 9.9
2017-Dec-09 09:13N 34°39' E 136°52'312.1
2017-Dec-09 09:00N 34°41' E 136°49'612.4
2017-Dec-09 08:29N 34°47' E 136°46'612.4
2017-Dec-09 08:00N 34°52' E 136°43'611.9
2017-Dec-09 07:30N 34°57' E 136°39'1 1.4
2017-Dec-09 06:55N 34°57' E 136°38'0 0.0
2017-Dec-08 23:19N 34°57' E 136°38'0 0.0
2017-Dec-08 22:49N 34°57' E 136°38'1 3.9
2017-Dec-08 22:30N 34°57' E 136°40'3 4.9
2017-Dec-08 21:59N 34°54' E 136°41'0 0.0
2017-Dec-08 21:29N 34°54' E 136°41'0 0.0
2017-Dec-08 20:59N 34°54' E 136°41'0 0.0
2017-Dec-08 20:29N 34°54' E 136°41'0 0.0
2017-Dec-08 19:59N 34°54' E 136°41'0 0.0
2017-Dec-08 19:29N 34°54' E 136°41'0 0.1
2017-Dec-08 18:59N 34°54' E 136°41'0 0.1
2017-Dec-08 18:29N 34°54' E 136°41'0 0.1
2017-Dec-08 17:59N 34°54' E 136°41'0 0.0
2017-Dec-08 17:29N 34°54' E 136°41'0 0.1
2017-Dec-08 16:53N 34°54' E 136°41'0 0.1
2017-Dec-08 16:29N 34°54' E 136°41'0 0.1
2017-Dec-08 15:59N 34°54' E 136°41'0 0.0
2017-Dec-08 15:29N 34°54' E 136°41'0 0.0
2017-Dec-08 14:59N 34°54' E 136°41'0 0.0
2017-Dec-08 14:26N 34°54' E 136°41'0 0.0
2017-Dec-08 13:56N 34°54' E 136°41'1 3.2
2017-Dec-08 13:30N 34°53' E 136°42'510.1
2017-Dec-08 13:00N 34°49' E 136°45'510.1
2017-Dec-08 12:30N 34°45' E 136°48'5 9.6
2017-Dec-08 12:00N 34°41' E 136°52'  
2017-Dec-04 07:17N 34°01' E 132°46'310.9
2017-Dec-04 07:00N 33°58' E 132°44'510.1
2017-Dec-04 06:30N 33°55' E 132°39'510.5
2017-Dec-04 06:00N 33°53' E 132°34'610.8
2017-Dec-04 05:29N 33°51' E 132°27'510.4
2017-Dec-04 04:59N 33°50' E 132°21'710.9
2017-Dec-04 04:18N 33°50' E 132°12'711.3
2017-Dec-04 03:40N 33°46' E 132°05'211.7
2017-Dec-04 03:30N 33°45' E 132°03'811.9
2017-Dec-04 02:52N 33°45' E 131°53'512.3
2017-Dec-04 02:29N 33°46' E 131°48'612.7
2017-Dec-04 02:00N 33°48' E 131°41'612.8
2017-Dec-04 01:30N 33°49' E 131°33'612.4
2017-Dec-04 01:00N 33°50' E 131°26'611.8
2017-Dec-04 00:30N 33°51' E 131°19'611.8
2017-Dec-04 00:00N 33°53' E 131°12'611.2
2017-Dec-03 23:30N 33°56' E 131°06'510.6
2017-Dec-03 23:00N 33°58' E 131°01'4 8.2
2017-Dec-03 22:30N 33°57' E 130°56'1 1.2
2017-Dec-03 22:00N 33°57' E 130°56'0 0.1
2017-Dec-03 21:30N 33°57' E 130°56'0 0.1
2017-Dec-03 21:00N 33°57' E 130°56'0 0.0
2017-Dec-03 20:30N 33°57' E 130°56'0 0.1
2017-Dec-03 20:00N 33°57' E 130°56'0 0.1
2017-Dec-03 19:30N 33°57' E 130°56'0 0.1
2017-Dec-03 19:00N 33°57' E 130°56'0 0.1
2017-Dec-03 18:30N 33°57' E 130°56'0 0.0
2017-Dec-03 18:00N 33°57' E 130°56'0 0.0
2017-Dec-03 17:30N 33°57' E 130°56'0 0.1
2017-Dec-03 17:00N 33°57' E 130°56'0 0.1
2017-Dec-03 16:30N 33°57' E 130°56'0 0.1
2017-Dec-03 16:00N 33°57' E 130°56'0 0.1
2017-Dec-03 15:30N 33°57' E 130°56'0 0.1
2017-Dec-03 15:00N 33°57' E 130°56'0 0.1
2017-Dec-03 14:30N 33°57' E 130°56'0 0.1
2017-Dec-03 14:00N 33°57' E 130°56'0 0.1
2017-Dec-03 13:30N 33°57' E 130°56'0 0.0
2017-Dec-03 13:00N 33°57' E 130°56'0 0.0
2017-Dec-03 12:30N 33°57' E 130°56'0 0.0
2017-Dec-03 12:00N 33°57' E 130°56'0 0.0
2017-Dec-03 11:30N 33°57' E 130°56'0 0.0
2017-Dec-03 11:00N 33°57' E 130°56'0 0.1
2017-Dec-03 10:30N 33°57' E 130°56'0 0.1
2017-Dec-03 10:00N 33°57' E 130°56'0 0.1
2017-Dec-03 09:30N 33°57' E 130°56'0 0.0
2017-Dec-03 09:00N 33°57' E 130°56'0 0.1
2017-Dec-03 08:30N 33°57' E 130°56'0 0.1
2017-Dec-03 08:00N 33°57' E 130°56'0 0.1
2017-Dec-03 07:30N 33°57' E 130°56'0 0.0
2017-Dec-03 07:00N 33°57' E 130°56'0 0.0
2017-Dec-03 06:30N 33°57' E 130°56'0 0.0
2017-Dec-03 06:00N 33°57' E 130°56'0 0.0
2017-Dec-03 05:30N 33°57' E 130°56'0 0.0
2017-Dec-03 05:00N 33°57' E 130°56'0 0.0
2017-Dec-03 04:30N 33°57' E 130°56'0 0.0
2017-Dec-03 04:00N 33°57' E 130°56'0 0.0
2017-Dec-03 03:30N 33°57' E 130°56'0 0.0
2017-Dec-03 03:00N 33°57' E 130°56'0 0.1
2017-Dec-03 02:30N 33°57' E 130°56'0 0.0
2017-Dec-03 02:00N 33°57' E 130°56'0 0.1
2017-Dec-03 01:30N 33°57' E 130°56'0 0.1
2017-Dec-03 01:00N 33°57' E 130°56'0 0.1
2017-Dec-03 00:27N 33°57' E 130°56'0 0.1
2017-Dec-03 00:00N 33°57' E 130°56'0 0.1
2017-Dec-02 23:30N 33°57' E 130°56'0 0.0
2017-Dec-02 23:00N 33°57' E 130°56'0 0.0
2017-Dec-02 22:30N 33°57' E 130°56'0 0.1
2017-Dec-02 22:00N 33°57' E 130°56'0 0.0
2017-Dec-02 21:30N 33°57' E 130°56'0 0.1
2017-Dec-02 21:00N 33°57' E 130°56'0 0.1
2017-Dec-02 20:30N 33°57' E 130°56'0 0.1
2017-Dec-02 20:00N 33°57' E 130°56'0 0.0
2017-Dec-02 19:30N 33°57' E 130°56'0 0.0
2017-Dec-02 19:00N 33°57' E 130°56'0 0.0
2017-Dec-02 18:30N 33°57' E 130°56'0 0.1
2017-Dec-02 18:00N 33°57' E 130°56'0 0.1
2017-Dec-02 17:30N 33°57' E 130°56'0 0.0
2017-Dec-02 17:00N 33°57' E 130°56'0 0.0
2017-Dec-02 16:30N 33°57' E 130°56'0 0.0
2017-Dec-02 16:00N 33°57' E 130°56'0 0.1
2017-Dec-02 15:30N 33°57' E 130°56'0 0.0
2017-Dec-02 15:00N 33°57' E 130°56'0 0.0
2017-Dec-02 14:30N 33°57' E 130°56'0 0.0
2017-Dec-02 14:00N 33°57' E 130°56'0 0.1
2017-Dec-02 13:30N 33°57' E 130°56'0 0.0
2017-Dec-02 13:00N 33°57' E 130°56'0 0.0
2017-Dec-02 12:30N 33°57' E 130°56'0 0.0
2017-Dec-02 12:00N 33°57' E 130°56'0 0.0
2017-Dec-02 11:30N 33°57' E 130°56'0 0.0
2017-Dec-02 11:00N 33°57' E 130°56'0 0.1
2017-Dec-02 10:30N 33°57' E 130°56'0 0.0
2017-Dec-02 10:00N 33°57' E 130°56'0 0.0
2017-Dec-02 09:30N 33°57' E 130°56'0 0.1
2017-Dec-02 09:00N 33°57' E 130°56'0 0.0
2017-Dec-02 08:30N 33°57' E 130°56'0 0.0
2017-Dec-02 08:00N 33°57' E 130°56'0 0.0
2017-Dec-02 07:30N 33°57' E 130°56'0 0.0
2017-Dec-02 07:00N 33°57' E 130°56'0 0.1
2017-Dec-02 06:30N 33°57' E 130°56'0 0.1
2017-Dec-02 06:00N 33°57' E 130°56'0 0.1
2017-Dec-02 05:30N 33°57' E 130°56'1 2.1
2017-Dec-02 05:01N 33°56' E 130°56'4 8.8
2017-Dec-02 04:30N 33°57' E 130°51'612.1
2017-Dec-02 04:00N 33°58' E 130°44'612.8
2017-Dec-02 03:30N 33°57' E 130°36'612.0
2017-Dec-02 03:00N 33°55' E 130°29'612.5
2017-Dec-02 02:30N 33°51' E 130°24'612.1
2017-Dec-02 02:00N 33°46' E 130°19'612.2
2017-Dec-02 01:30N 33°43' E 130°13'612.3
2017-Dec-02 01:00N 33°39' E 130°07'812.2
2017-Dec-02 00:21N 33°36' E 129°58'4 0.1
2017-Nov-30 18:30N 33°37' E 130°03'5 9.6
2017-Nov-30 17:58N 33°39' E 130°09'510.3
2017-Nov-30 17:30N 33°43' E 130°13'5 9.6
2017-Nov-30 17:00N 33°46' E 130°17'5 9.6
2017-Nov-30 16:30N 33°49' E 130°22'510.1
2017-Nov-30 16:00N 33°52' E 130°26'510.9
2017-Nov-30 15:30N 33°56' E 130°31'5 9.8
2017-Nov-30 15:00N 33°57' E 130°37'5 9.7
2017-Nov-30 14:30N 33°58' E 130°42'5 9.9
2017-Nov-30 14:00N 33°58' E 130°48'5 9.2
2017-Nov-30 13:30N 33°56' E 130°53'3 6.0
2017-Nov-30 13:01N 33°57' E 130°57'5 9.1
2017-Nov-30 12:30N 33°58' E 131°02'5 9.8
2017-Nov-30 12:00N 33°54' E 131°04'4 8.9
2017-Nov-30 11:31N 33°49' E 131°03'  

Dump ship's entire track history